sensor_id;sensor_type;location;lat;lon;timestamp;temperature;humidity
71668;DHT22;59504;54.806;9.640;2023-03-26T00:01:32;7.30;79.80
71668;DHT22;59504;54.806;9.640;2023-03-26T00:03:56;7.30;79.10
71668;DHT22;59504;54.806;9.640;2023-03-26T00:06:17;7.20;79.00
71668;DHT22;59504;54.806;9.640;2023-03-26T00:08:39;7.20;78.80
71668;DHT22;59504;54.806;9.640;2023-03-26T00:11:00;7.20;78.60
71668;DHT22;59504;54.806;9.640;2023-03-26T00:13:21;7.20;78.40
71668;DHT22;59504;54.806;9.640;2023-03-26T00:15:28;7.20;78.20
71668;DHT22;59504;54.806;9.640;2023-03-26T00:17:29;7.10;78.10
71668;DHT22;59504;54.806;9.640;2023-03-26T00:19:29;7.10;78.00
71668;DHT22;59504;54.806;9.640;2023-03-26T00:21:38;7.10;77.90
71668;DHT22;59504;54.806;9.640;2023-03-26T00:24:03;7.00;77.80
71668;DHT22;59504;54.806;9.640;2023-03-26T00:26:25;7.00;77.60
71668;DHT22;59504;54.806;9.640;2023-03-26T00:28:33;7.00;77.50
71668;DHT22;59504;54.806;9.640;2023-03-26T00:31:02;7.00;77.20
71668;DHT22;59504;54.806;9.640;2023-03-26T00:33:23;6.90;77.10
71668;DHT22;59504;54.806;9.640;2023-03-26T00:35:44;6.90;77.10
71668;DHT22;59504;54.806;9.640;2023-03-26T00:38:06;6.90;77.30
71668;DHT22;59504;54.806;9.640;2023-03-26T00:40:27;6.90;77.30
71668;DHT22;59504;54.806;9.640;2023-03-26T00:42:49;6.80;77.30
71668;DHT22;59504;54.806;9.640;2023-03-26T00:45:10;6.80;77.40
71668;DHT22;59504;54.806;9.640;2023-03-26T00:47:30;6.70;77.30
71668;DHT22;59504;54.806;9.640;2023-03-26T00:49:51;6.80;77.40
71668;DHT22;59504;54.806;9.640;2023-03-26T00:52:11;6.70;77.30
71668;DHT22;59504;54.806;9.640;2023-03-26T00:54:39;6.70;77.20
71668;DHT22;59504;54.806;9.640;2023-03-26T00:57:00;6.70;77.10
71668;DHT22;59504;54.806;9.640;2023-03-26T00:59:13;6.60;76.90
71668;DHT22;59504;54.806;9.640;2023-03-26T01:01:33;6.60;76.90
71668;DHT22;59504;54.806;9.640;2023-03-26T01:03:57;6.60;76.90
71668;DHT22;59504;54.806;9.640;2023-03-26T01:06:30;6.50;76.90
71668;DHT22;59504;54.806;9.640;2023-03-26T01:08:53;6.50;76.80
71668;DHT22;59504;54.806;9.640;2023-03-26T01:11:21;6.60;76.80
71668;DHT22;59504;54.806;9.640;2023-03-26T01:13:47;6.40;76.60
71668;DHT22;59504;54.806;9.640;2023-03-26T01:16:17;6.50;76.80
71668;DHT22;59504;54.806;9.640;2023-03-26T01:18:39;6.50;76.70
71668;DHT22;59504;54.806;9.640;2023-03-26T01:21:03;6.40;76.70
71668;DHT22;59504;54.806;9.640;2023-03-26T01:23:32;6.40;76.90
71668;DHT22;59504;54.806;9.640;2023-03-26T01:26:21;6.40;77.10
71668;DHT22;59504;54.806;9.640;2023-03-26T01:28:44;6.40;76.90
71668;DHT22;59504;54.806;9.640;2023-03-26T01:31:15;6.40;77.20
71668;DHT22;59504;54.806;9.640;2023-03-26T01:33:50;6.40;77.50
71668;DHT22;59504;54.806;9.640;2023-03-26T01:36:48;6.30;77.50
71668;DHT22;59504;54.806;9.640;2023-03-26T01:41:52;6.30;77.80
71668;DHT22;59504;54.806;9.640;2023-03-26T01:44:25;6.30;78.20
71668;DHT22;59504;54.806;9.640;2023-03-26T01:46:47;6.40;78.10
71668;DHT22;59504;54.806;9.640;2023-03-26T01:49:09;6.30;78.20
71668;DHT22;59504;54.806;9.640;2023-03-26T01:51:34;6.30;78.30
71668;DHT22;59504;54.806;9.640;2023-03-26T01:53:56;6.30;78.30
71668;DHT22;59504;54.806;9.640;2023-03-26T02:01:39;6.30;78.50
71668;DHT22;59504;54.806;9.640;2023-03-26T02:04:14;6.30;78.40
71668;DHT22;59504;54.806;9.640;2023-03-26T02:09:05;6.20;78.30
71668;DHT22;59504;54.806;9.640;2023-03-26T02:11:26;6.20;78.00
71668;DHT22;59504;54.806;9.640;2023-03-26T02:13:46;6.10;77.90
71668;DHT22;59504;54.806;9.640;2023-03-26T02:16:07;6.10;77.70
71668;DHT22;59504;54.806;9.640;2023-03-26T02:18:27;6.10;77.60
71668;DHT22;59504;54.806;9.640;2023-03-26T02:20:59;6.00;77.60
71668;DHT22;59504;54.806;9.640;2023-03-26T02:23:21;6.00;77.60
71668;DHT22;59504;54.806;9.640;2023-03-26T02:25:40;6.00;77.60
71668;DHT22;59504;54.806;9.640;2023-03-26T02:28:01;5.90;77.50
71668;DHT22;59504;54.806;9.640;2023-03-26T02:30:24;5.90;77.40
71668;DHT22;59504;54.806;9.640;2023-03-26T02:32:43;5.90;77.30
71668;DHT22;59504;54.806;9.640;2023-03-26T02:34:44;5.90;77.30
71668;DHT22;59504;54.806;9.640;2023-03-26T02:36:45;5.80;77.30
71668;DHT22;59504;54.806;9.640;2023-03-26T02:38:46;5.80;77.10
71668;DHT22;59504;54.806;9.640;2023-03-26T02:40:46;5.80;77.10
71668;DHT22;59504;54.806;9.640;2023-03-26T02:42:48;5.80;77.10
71668;DHT22;59504;54.806;9.640;2023-03-26T02:44:48;5.70;76.70
71668;DHT22;59504;54.806;9.640;2023-03-26T02:46:49;5.70;76.70
71668;DHT22;59504;54.806;9.640;2023-03-26T02:48:50;5.70;76.70
71668;DHT22;59504;54.806;9.640;2023-03-26T02:50:51;5.60;76.70
71668;DHT22;59504;54.806;9.640;2023-03-26T02:52:53;5.60;76.60
71668;DHT22;59504;54.806;9.640;2023-03-26T02:54:54;5.60;76.50
71668;DHT22;59504;54.806;9.640;2023-03-26T02:56:55;5.50;76.20
71668;DHT22;59504;54.806;9.640;2023-03-26T02:58:56;5.50;76.20
71668;DHT22;59504;54.806;9.640;2023-03-26T03:00:56;5.50;76.10
71668;DHT22;59504;54.806;9.640;2023-03-26T03:02:57;5.50;76.00
71668;DHT22;59504;54.806;9.640;2023-03-26T03:04:57;5.40;76.10
71668;DHT22;59504;54.806;9.640;2023-03-26T03:07:00;5.40;76.00
71668;DHT22;59504;54.806;9.640;2023-03-26T03:09:01;5.40;76.10
71668;DHT22;59504;54.806;9.640;2023-03-26T03:11:14;5.40;76.20
71668;DHT22;59504;54.806;9.640;2023-03-26T03:13:15;5.40;76.30
71668;DHT22;59504;54.806;9.640;2023-03-26T03:15:16;5.40;76.20
71668;DHT22;59504;54.806;9.640;2023-03-26T03:17:16;5.30;75.80
71668;DHT22;59504;54.806;9.640;2023-03-26T03:19:20;5.30;75.60
71668;DHT22;59504;54.806;9.640;2023-03-26T03:21:22;5.30;75.50
71668;DHT22;59504;54.806;9.640;2023-03-26T03:23:23;5.20;74.30
71668;DHT22;59504;54.806;9.640;2023-03-26T03:25:24;5.20;74.30
71668;DHT22;59504;54.806;9.640;2023-03-26T03:27:25;5.20;74.00
71668;DHT22;59504;54.806;9.640;2023-03-26T03:29:26;5.20;74.10
71668;DHT22;59504;54.806;9.640;2023-03-26T03:31:27;5.10;73.90
71668;DHT22;59504;54.806;9.640;2023-03-26T03:33:28;5.10;73.70
71668;DHT22;59504;54.806;9.640;2023-03-26T03:35:29;5.00;73.60
71668;DHT22;59504;54.806;9.640;2023-03-26T03:37:30;5.00;73.60
71668;DHT22;59504;54.806;9.640;2023-03-26T03:39:30;5.00;73.70
71668;DHT22;59504;54.806;9.640;2023-03-26T03:41:31;4.90;73.70
71668;DHT22;59504;54.806;9.640;2023-03-26T03:43:32;4.90;73.90
71668;DHT22;59504;54.806;9.640;2023-03-26T03:45:32;4.80;73.80
71668;DHT22;59504;54.806;9.640;2023-03-26T03:47:33;4.80;72.80
71668;DHT22;59504;54.806;9.640;2023-03-26T03:49:34;4.80;72.90
71668;DHT22;59504;54.806;9.640;2023-03-26T03:51:34;4.80;73.10
71668;DHT22;59504;54.806;9.640;2023-03-26T03:53:35;4.80;73.00
71668;DHT22;59504;54.806;9.640;2023-03-26T03:55:36;4.80;73.00
71668;DHT22;59504;54.806;9.640;2023-03-26T03:57:37;4.70;72.90
71668;DHT22;59504;54.806;9.640;2023-03-26T03:59:38;4.90;72.70
71668;DHT22;59504;54.806;9.640;2023-03-26T04:01:39;4.70;72.40
71668;DHT22;59504;54.806;9.640;2023-03-26T04:03:42;4.70;72.40
71668;DHT22;59504;54.806;9.640;2023-03-26T04:05:45;4.70;72.50
71668;DHT22;59504;54.806;9.640;2023-03-26T04:07:49;4.70;72.30
71668;DHT22;59504;54.806;9.640;2023-03-26T04:09:49;4.70;71.90
71668;DHT22;59504;54.806;9.640;2023-03-26T04:11:50;4.70;71.80
71668;DHT22;59504;54.806;9.640;2023-03-26T04:13:51;4.70;71.60
71668;DHT22;59504;54.806;9.640;2023-03-26T04:15:51;4.60;71.10
71668;DHT22;59504;54.806;9.640;2023-03-26T04:17:52;4.70;71.00
71668;DHT22;59504;54.806;9.640;2023-03-26T04:19:52;4.70;70.80
71668;DHT22;59504;54.806;9.640;2023-03-26T04:21:54;4.60;70.50
71668;DHT22;59504;54.806;9.640;2023-03-26T04:24:11;4.60;70.70
71668;DHT22;59504;54.806;9.640;2023-03-26T04:26:15;4.60;69.90
71668;DHT22;59504;54.806;9.640;2023-03-26T04:31:05;4.60;70.20
71668;DHT22;59504;54.806;9.640;2023-03-26T04:33:31;4.60;69.90
71668;DHT22;59504;54.806;9.640;2023-03-26T04:35:52;4.50;68.40
71668;DHT22;59504;54.806;9.640;2023-03-26T04:38:14;4.50;67.10
71668;DHT22;59504;54.806;9.640;2023-03-26T04:40:18;4.50;67.20
71668;DHT22;59504;54.806;9.640;2023-03-26T04:42:39;4.50;67.20
71668;DHT22;59504;54.806;9.640;2023-03-26T04:45:09;4.40;66.90
71668;DHT22;59504;54.806;9.640;2023-03-26T04:47:31;4.40;67.10
71668;DHT22;59504;54.806;9.640;2023-03-26T04:49:31;4.40;66.40
71668;DHT22;59504;54.806;9.640;2023-03-26T04:51:52;4.40;66.70
71668;DHT22;59504;54.806;9.640;2023-03-26T04:54:15;4.30;66.20
71668;DHT22;59504;54.806;9.640;2023-03-26T04:56:53;4.30;66.60
71668;DHT22;59504;54.806;9.640;2023-03-26T04:59:20;4.30;66.80
71668;DHT22;59504;54.806;9.640;2023-03-26T05:01:45;4.30;66.90
71668;DHT22;59504;54.806;9.640;2023-03-26T05:04:05;4.30;66.80
71668;DHT22;59504;54.806;9.640;2023-03-26T05:06:27;4.30;66.50
71668;DHT22;59504;54.806;9.640;2023-03-26T05:08:47;4.30;66.80
71668;DHT22;59504;54.806;9.640;2023-03-26T05:11:11;4.20;66.60
71668;DHT22;59504;54.806;9.640;2023-03-26T05:13:32;4.20;66.50
71668;DHT22;59504;54.806;9.640;2023-03-26T05:15:52;4.20;66.50
71668;DHT22;59504;54.806;9.640;2023-03-26T05:18:15;4.20;66.40
71668;DHT22;59504;54.806;9.640;2023-03-26T05:20:35;4.20;66.60
71668;DHT22;59504;54.806;9.640;2023-03-26T05:22:56;4.10;66.60
71668;DHT22;59504;54.806;9.640;2023-03-26T05:25:17;4.10;66.80
71668;DHT22;59504;54.806;9.640;2023-03-26T05:27:37;4.10;67.10
71668;DHT22;59504;54.806;9.640;2023-03-26T05:30:03;4.10;67.10
71668;DHT22;59504;54.806;9.640;2023-03-26T05:32:24;4.10;67.00
71668;DHT22;59504;54.806;9.640;2023-03-26T05:34:45;4.10;67.20
71668;DHT22;59504;54.806;9.640;2023-03-26T05:37:06;4.10;67.30
71668;DHT22;59504;54.806;9.640;2023-03-26T05:39:28;4.10;67.40
71668;DHT22;59504;54.806;9.640;2023-03-26T05:41:49;4.10;67.30
71668;DHT22;59504;54.806;9.640;2023-03-26T05:44:10;4.10;67.30
71668;DHT22;59504;54.806;9.640;2023-03-26T05:46:30;4.00;67.10
71668;DHT22;59504;54.806;9.640;2023-03-26T05:48:51;4.00;67.30
71668;DHT22;59504;54.806;9.640;2023-03-26T05:51:12;4.00;67.40
71668;DHT22;59504;54.806;9.640;2023-03-26T05:53:34;4.00;67.50
71668;DHT22;59504;54.806;9.640;2023-03-26T05:55:55;4.00;67.50
71668;DHT22;59504;54.806;9.640;2023-03-26T05:58:19;4.00;67.40
71668;DHT22;59504;54.806;9.640;2023-03-26T06:00:39;4.00;67.60
71668;DHT22;59504;54.806;9.640;2023-03-26T06:03:00;4.00;67.80
71668;DHT22;59504;54.806;9.640;2023-03-26T06:05:21;4.00;67.80
71668;DHT22;59504;54.806;9.640;2023-03-26T06:07:41;4.00;67.90
71668;DHT22;59504;54.806;9.640;2023-03-26T06:10:02;4.10;67.90
71668;DHT22;59504;54.806;9.640;2023-03-26T06:12:23;4.10;67.70
71668;DHT22;59504;54.806;9.640;2023-03-26T06:14:43;4.10;67.70
71668;DHT22;59504;54.806;9.640;2023-03-26T06:17:05;4.10;67.70
71668;DHT22;59504;54.806;9.640;2023-03-26T06:19:05;4.10;67.80
71668;DHT22;59504;54.806;9.640;2023-03-26T06:21:06;4.10;67.80
71668;DHT22;59504;54.806;9.640;2023-03-26T06:23:07;4.20;67.90
71668;DHT22;59504;54.806;9.640;2023-03-26T06:25:08;4.20;67.90
71668;DHT22;59504;54.806;9.640;2023-03-26T06:27:09;4.20;68.00
71668;DHT22;59504;54.806;9.640;2023-03-26T06:29:09;4.20;68.00
71668;DHT22;59504;54.806;9.640;2023-03-26T06:31:10;4.30;67.90
71668;DHT22;59504;54.806;9.640;2023-03-26T06:33:11;4.30;67.70
71668;DHT22;59504;54.806;9.640;2023-03-26T06:35:12;4.30;67.70
71668;DHT22;59504;54.806;9.640;2023-03-26T06:37:13;4.30;67.80
71668;DHT22;59504;54.806;9.640;2023-03-26T06:39:14;4.30;67.40
71668;DHT22;59504;54.806;9.640;2023-03-26T06:41:15;4.40;67.40
71668;DHT22;59504;54.806;9.640;2023-03-26T06:43:16;4.40;67.30
71668;DHT22;59504;54.806;9.640;2023-03-26T06:45:17;4.40;67.20
71668;DHT22;59504;54.806;9.640;2023-03-26T06:47:17;4.40;67.20
71668;DHT22;59504;54.806;9.640;2023-03-26T06:49:18;4.50;66.90
71668;DHT22;59504;54.806;9.640;2023-03-26T06:51:18;4.50;66.80
71668;DHT22;59504;54.806;9.640;2023-03-26T06:53:19;4.50;66.80
71668;DHT22;59504;54.806;9.640;2023-03-26T06:55:20;4.60;66.90
71668;DHT22;59504;54.806;9.640;2023-03-26T06:57:21;4.60;66.70
71668;DHT22;59504;54.806;9.640;2023-03-26T06:59:22;4.60;66.80
71668;DHT22;59504;54.806;9.640;2023-03-26T07:01:22;4.70;66.90
71668;DHT22;59504;54.806;9.640;2023-03-26T07:03:23;4.70;66.70
71668;DHT22;59504;54.806;9.640;2023-03-26T07:05:24;4.70;66.70
71668;DHT22;59504;54.806;9.640;2023-03-26T07:07:25;4.80;66.80
71668;DHT22;59504;54.806;9.640;2023-03-26T07:09:26;4.80;66.80
71668;DHT22;59504;54.806;9.640;2023-03-26T07:11:29;4.80;66.60
71668;DHT22;59504;54.806;9.640;2023-03-26T07:13:30;4.90;66.70
71668;DHT22;59504;54.806;9.640;2023-03-26T07:15:31;4.90;66.00
71668;DHT22;59504;54.806;9.640;2023-03-26T07:17:31;4.90;65.90
71668;DHT22;59504;54.806;9.640;2023-03-26T07:19:32;5.00;65.50
71668;DHT22;59504;54.806;9.640;2023-03-26T07:21:34;5.00;65.40
71668;DHT22;59504;54.806;9.640;2023-03-26T07:23:35;5.00;66.10
71668;DHT22;59504;54.806;9.640;2023-03-26T07:25:49;5.00;64.50
71668;DHT22;59504;54.806;9.640;2023-03-26T07:30:31;5.10;64.30
71668;DHT22;59504;54.806;9.640;2023-03-26T07:32:57;5.10;63.60
71668;DHT22;59504;54.806;9.640;2023-03-26T07:39:56;5.20;63.50
71668;DHT22;59504;54.806;9.640;2023-03-26T07:44:40;5.20;63.60
71668;DHT22;59504;54.806;9.640;2023-03-26T07:47:18;5.30;63.90
71668;DHT22;59504;54.806;9.640;2023-03-26T07:49:45;5.30;62.70
71668;DHT22;59504;54.806;9.640;2023-03-26T07:52:05;5.30;62.20
71668;DHT22;59504;54.806;9.640;2023-03-26T07:54:21;5.40;62.20
71668;DHT22;59504;54.806;9.640;2023-03-26T07:57:02;5.40;61.60
71668;DHT22;59504;54.806;9.640;2023-03-26T07:59:35;5.40;61.60
71668;DHT22;59504;54.806;9.640;2023-03-26T08:15:29;5.50;60.20
71668;DHT22;59504;54.806;9.640;2023-03-26T08:18:11;5.50;60.30
71668;DHT22;59504;54.806;9.640;2023-03-26T08:20:48;5.60;60.30
71668;DHT22;59504;54.806;9.640;2023-03-26T08:23:34;5.50;59.60
71668;DHT22;59504;54.806;9.640;2023-03-26T08:26:11;5.60;59.70
71668;DHT22;59504;54.806;9.640;2023-03-26T08:28:55;5.70;59.50
71668;DHT22;59504;54.806;9.640;2023-03-26T08:31:26;5.70;59.10
71668;DHT22;59504;54.806;9.640;2023-03-26T08:33:48;5.70;59.50
71668;DHT22;59504;54.806;9.640;2023-03-26T08:36:09;5.70;58.80
71668;DHT22;59504;54.806;9.640;2023-03-26T08:38:30;5.80;59.10
71668;DHT22;59504;54.806;9.640;2023-03-26T08:51:21;5.90;58.10
71668;DHT22;59504;54.806;9.640;2023-03-26T09:02:23;5.90;57.80
71668;DHT22;59504;54.806;9.640;2023-03-26T09:10:45;6.00;58.10
71668;DHT22;59504;54.806;9.640;2023-03-26T09:19:10;6.00;58.20
71668;DHT22;59504;54.806;9.640;2023-03-26T09:26:49;6.10;57.80
71668;DHT22;59504;54.806;9.640;2023-03-26T09:34:56;6.30;57.80
71668;DHT22;59504;54.806;9.640;2023-03-26T09:37:58;6.40;57.50
71668;DHT22;59504;54.806;9.640;2023-03-26T09:40:19;6.40;57.80
71668;DHT22;59504;54.806;9.640;2023-03-26T09:43:09;6.40;57.70
71668;DHT22;59504;54.806;9.640;2023-03-26T09:45:43;6.40;57.30
71668;DHT22;59504;54.806;9.640;2023-03-26T09:51:23;6.50;56.40
71668;DHT22;59504;54.806;9.640;2023-03-26T09:59:12;6.60;56.40
71668;DHT22;59504;54.806;9.640;2023-03-26T10:01:50;6.80;57.10
71668;DHT22;59504;54.806;9.640;2023-03-26T10:04:35;6.80;56.70
71668;DHT22;59504;54.806;9.640;2023-03-26T10:07:24;6.80;56.40
71668;DHT22;59504;54.806;9.640;2023-03-26T10:10:03;6.90;56.80
71668;DHT22;59504;54.806;9.640;2023-03-26T10:22:54;7.00;55.80
71668;DHT22;59504;54.806;9.640;2023-03-26T10:25:28;7.00;55.50
71668;DHT22;59504;54.806;9.640;2023-03-26T10:30:34;7.20;55.00
71668;DHT22;59504;54.806;9.640;2023-03-26T10:38:12;7.30;54.80
71668;DHT22;59504;54.806;9.640;2023-03-26T10:45:42;7.40;53.20
71668;DHT22;59504;54.806;9.640;2023-03-26T10:48:32;7.40;52.60
71668;DHT22;59504;54.806;9.640;2023-03-26T10:51:02;7.40;52.90
71668;DHT22;59504;54.806;9.640;2023-03-26T10:54:04;7.40;53.40
71668;DHT22;59504;54.806;9.640;2023-03-26T10:58:53;7.60;53.80
71668;DHT22;59504;54.806;9.640;2023-03-26T11:03:53;7.70;53.00
71668;DHT22;59504;54.806;9.640;2023-03-26T11:06:36;7.70;52.80
71668;DHT22;59504;54.806;9.640;2023-03-26T11:09:15;7.70;53.00
71668;DHT22;59504;54.806;9.640;2023-03-26T11:14:39;7.80;53.70
71668;DHT22;59504;54.806;9.640;2023-03-26T11:17:17;7.80;53.50
71668;DHT22;59504;54.806;9.640;2023-03-26T11:22:19;7.90;52.90
71668;DHT22;59504;54.806;9.640;2023-03-26T11:28:02;8.00;52.60
71668;DHT22;59504;54.806;9.640;2023-03-26T11:30:47;8.00;52.40
71668;DHT22;59504;54.806;9.640;2023-03-26T11:33:17;8.10;52.10
71668;DHT22;59504;54.806;9.640;2023-03-26T11:35:39;8.10;51.90
71668;DHT22;59504;54.806;9.640;2023-03-26T11:38:05;8.10;52.00
71668;DHT22;59504;54.806;9.640;2023-03-26T11:40:30;8.10;52.50
71668;DHT22;59504;54.806;9.640;2023-03-26T11:42:55;8.10;53.00
71668;DHT22;59504;54.806;9.640;2023-03-26T11:45:18;8.10;52.30
71668;DHT22;59504;54.806;9.640;2023-03-26T11:47:47;8.20;52.00
71668;DHT22;59504;54.806;9.640;2023-03-26T11:50:14;8.20;51.70
71668;DHT22;59504;54.806;9.640;2023-03-26T11:52:35;8.20;51.70
71668;DHT22;59504;54.806;9.640;2023-03-26T11:54:55;8.20;51.70
71668;DHT22;59504;54.806;9.640;2023-03-26T11:57:25;8.20;51.60
71668;DHT22;59504;54.806;9.640;2023-03-26T11:59:57;8.10;51.20
71668;DHT22;59504;54.806;9.640;2023-03-26T12:02:24;8.10;51.00
71668;DHT22;59504;54.806;9.640;2023-03-26T12:04:45;8.20;51.20
71668;DHT22;59504;54.806;9.640;2023-03-26T12:09:54;8.20;52.20
71668;DHT22;59504;54.806;9.640;2023-03-26T12:12:14;8.20;52.10
71668;DHT22;59504;54.806;9.640;2023-03-26T12:14:35;8.20;51.40
71668;DHT22;59504;54.806;9.640;2023-03-26T12:17:06;8.30;51.50
71668;DHT22;59504;54.806;9.640;2023-03-26T12:19:26;8.40;51.60
71668;DHT22;59504;54.806;9.640;2023-03-26T12:21:49;8.30;51.60
71668;DHT22;59504;54.806;9.640;2023-03-26T12:24:30;8.40;51.10
71668;DHT22;59504;54.806;9.640;2023-03-26T12:26:56;8.40;50.90
71668;DHT22;59504;54.806;9.640;2023-03-26T12:29:17;8.50;50.40
71668;DHT22;59504;54.806;9.640;2023-03-26T12:32:02;8.50;50.00
71668;DHT22;59504;54.806;9.640;2023-03-26T12:34:34;8.50;49.50
71668;DHT22;59504;54.806;9.640;2023-03-26T12:36:55;8.60;49.60
71668;DHT22;59504;54.806;9.640;2023-03-26T12:39:28;8.60;49.90
71668;DHT22;59504;54.806;9.640;2023-03-26T12:41:59;8.60;49.60
71668;DHT22;59504;54.806;9.640;2023-03-26T12:44:35;8.60;49.60
71668;DHT22;59504;54.806;9.640;2023-03-26T12:49:25;8.60;50.30
71668;DHT22;59504;54.806;9.640;2023-03-26T12:53:59;8.70;49.10
71668;DHT22;59504;54.806;9.640;2023-03-26T12:58:36;8.70;48.00
71668;DHT22;59504;54.806;9.640;2023-03-26T13:03:15;8.70;48.10
71668;DHT22;59504;54.806;9.640;2023-03-26T13:10:28;8.80;49.30
71668;DHT22;59504;54.806;9.640;2023-03-26T13:12:59;8.80;49.00
71668;DHT22;59504;54.806;9.640;2023-03-26T13:23:20;9.00;48.70
71668;DHT22;59504;54.806;9.640;2023-03-26T13:25:41;9.10;47.80
71668;DHT22;59504;54.806;9.640;2023-03-26T13:30:32;9.10;48.10
71668;DHT22;59504;54.806;9.640;2023-03-26T13:35:41;9.20;47.30
71668;DHT22;59504;54.806;9.640;2023-03-26T13:43:26;9.10;48.20
71668;DHT22;59504;54.806;9.640;2023-03-26T13:48:35;9.10;47.60
71668;DHT22;59504;54.806;9.640;2023-03-26T13:51:03;9.10;47.80
71668;DHT22;59504;54.806;9.640;2023-03-26T13:53:36;9.00;48.30
71668;DHT22;59504;54.806;9.640;2023-03-26T13:56:01;9.00;47.80
71668;DHT22;59504;54.806;9.640;2023-03-26T14:06:22;8.80;46.50
71668;DHT22;59504;54.806;9.640;2023-03-26T14:08:47;8.80;46.80
71668;DHT22;59504;54.806;9.640;2023-03-26T14:11:20;8.80;47.30
71668;DHT22;59504;54.806;9.640;2023-03-26T14:13:46;8.80;47.80
71668;DHT22;59504;54.806;9.640;2023-03-26T14:16:40;8.80;48.00
71668;DHT22;59504;54.806;9.640;2023-03-26T14:51:52;8.90;47.60
71668;DHT22;59504;54.806;9.640;2023-03-26T14:54:18;8.90;47.10
71668;DHT22;59504;54.806;9.640;2023-03-26T15:01:45;8.90;47.50
71668;DHT22;59504;54.806;9.640;2023-03-26T15:06:44;8.80;47.90
71668;DHT22;59504;54.806;9.640;2023-03-26T15:19:28;8.50;46.40
71668;DHT22;59504;54.806;9.640;2023-03-26T15:29:20;8.20;47.20
71668;DHT22;59504;54.806;9.640;2023-03-26T15:36:53;8.10;47.60
71668;DHT22;59504;54.806;9.640;2023-03-26T15:41:49;8.00;46.10
71668;DHT22;59504;54.806;9.640;2023-03-26T15:50:23;8.00;47.00
71668;DHT22;59504;54.806;9.640;2023-03-26T15:52:34;8.00;47.00
71668;DHT22;59504;54.806;9.640;2023-03-26T15:54:52;8.00;47.50
71668;DHT22;59504;54.806;9.640;2023-03-26T15:59:47;8.00;47.50
71668;DHT22;59504;54.806;9.640;2023-03-26T16:11:14;8.00;48.20
71668;DHT22;59504;54.806;9.640;2023-03-26T16:13:37;8.10;48.50
71668;DHT22;59504;54.806;9.640;2023-03-26T16:15:42;8.00;47.40
71668;DHT22;59504;54.806;9.640;2023-03-26T16:20:27;8.00;47.70
71668;DHT22;59504;54.806;9.640;2023-03-26T16:24:45;8.00;47.70
71668;DHT22;59504;54.806;9.640;2023-03-26T16:31:31;7.90;47.40
71668;DHT22;59504;54.806;9.640;2023-03-26T16:33:37;7.80;47.30
71668;DHT22;59504;54.806;9.640;2023-03-26T16:36:02;7.80;47.00
71668;DHT22;59504;54.806;9.640;2023-03-26T16:38:09;7.70;47.10
71668;DHT22;59504;54.806;9.640;2023-03-26T16:42:37;7.60;47.20
71668;DHT22;59504;54.806;9.640;2023-03-26T16:53:57;7.30;47.10
71668;DHT22;59504;54.806;9.640;2023-03-26T16:56:10;7.20;47.10
71668;DHT22;59504;54.806;9.640;2023-03-26T17:01:07;7.10;46.60
71668;DHT22;59504;54.806;9.640;2023-03-26T17:03:49;7.00;46.10
71668;DHT22;59504;54.806;9.640;2023-03-26T17:10:14;6.80;45.30
71668;DHT22;59504;54.806;9.640;2023-03-26T17:14:42;6.70;45.60
71668;DHT22;59504;54.806;9.640;2023-03-26T17:17:08;6.70;45.80
71668;DHT22;59504;54.806;9.640;2023-03-26T17:24:23;6.50;45.40
71668;DHT22;59504;54.806;9.640;2023-03-26T17:26:32;6.40;45.20
71668;DHT22;59504;54.806;9.640;2023-03-26T17:28:49;6.30;45.50
71668;DHT22;59504;54.806;9.640;2023-03-26T17:31:01;6.30;45.40
71668;DHT22;59504;54.806;9.640;2023-03-26T17:35:07;6.10;45.70
71668;DHT22;59504;54.806;9.640;2023-03-26T17:37:09;6.10;45.90
71668;DHT22;59504;54.806;9.640;2023-03-26T17:39:46;6.00;46.10
71668;DHT22;59504;54.806;9.640;2023-03-26T17:41:54;6.00;46.50
71668;DHT22;59504;54.806;9.640;2023-03-26T17:44:21;5.90;46.70
71668;DHT22;59504;54.806;9.640;2023-03-26T17:46:35;5.90;47.00
71668;DHT22;59504;54.806;9.640;2023-03-26T17:48:39;5.80;47.20
71668;DHT22;59504;54.806;9.640;2023-03-26T17:50:51;5.80;47.40
71668;DHT22;59504;54.806;9.640;2023-03-26T17:52:56;5.70;47.50
71668;DHT22;59504;54.806;9.640;2023-03-26T17:54:58;5.60;47.60
71668;DHT22;59504;54.806;9.640;2023-03-26T17:57:13;5.60;47.80
71668;DHT22;59504;54.806;9.640;2023-03-26T17:59:18;5.50;48.00
71668;DHT22;59504;54.806;9.640;2023-03-26T18:01:36;5.50;48.00
71668;DHT22;59504;54.806;9.640;2023-03-26T18:03:45;5.40;48.00
71668;DHT22;59504;54.806;9.640;2023-03-26T18:05:52;5.40;48.00
71668;DHT22;59504;54.806;9.640;2023-03-26T18:08:30;5.30;48.20
71668;DHT22;59504;54.806;9.640;2023-03-26T18:10:49;5.30;48.20
71668;DHT22;59504;54.806;9.640;2023-03-26T18:17:46;5.10;48.30
71668;DHT22;59504;54.806;9.640;2023-03-26T18:19:54;5.10;48.50
71668;DHT22;59504;54.806;9.640;2023-03-26T18:22:04;5.10;48.30
71668;DHT22;59504;54.806;9.640;2023-03-26T18:24:24;5.00;48.40
71668;DHT22;59504;54.806;9.640;2023-03-26T18:26:44;4.90;48.20
71668;DHT22;59504;54.806;9.640;2023-03-26T18:28:51;4.90;48.30
71668;DHT22;59504;54.806;9.640;2023-03-26T18:30:52;4.90;48.20
71668;DHT22;59504;54.806;9.640;2023-03-26T18:33:00;4.80;48.10
71668;DHT22;59504;54.806;9.640;2023-03-26T18:35:16;4.80;48.00
71668;DHT22;59504;54.806;9.640;2023-03-26T18:37:23;4.80;47.90
71668;DHT22;59504;54.806;9.640;2023-03-26T18:39:26;4.60;47.80
71668;DHT22;59504;54.806;9.640;2023-03-26T18:41:31;4.60;47.80
71668;DHT22;59504;54.806;9.640;2023-03-26T18:43:33;4.60;48.00
71668;DHT22;59504;54.806;9.640;2023-03-26T18:45:38;4.50;48.00
71668;DHT22;59504;54.806;9.640;2023-03-26T18:47:40;4.50;48.20
71668;DHT22;59504;54.806;9.640;2023-03-26T18:49:43;4.40;48.30
71668;DHT22;59504;54.806;9.640;2023-03-26T18:51:45;4.40;48.40
71668;DHT22;59504;54.806;9.640;2023-03-26T18:53:50;4.30;48.60
71668;DHT22;59504;54.806;9.640;2023-03-26T18:55:51;4.30;48.70
71668;DHT22;59504;54.806;9.640;2023-03-26T18:57:52;4.20;48.90
71668;DHT22;59504;54.806;9.640;2023-03-26T19:00:06;4.30;49.20
71668;DHT22;59504;54.806;9.640;2023-03-26T19:02:15;4.20;49.30
71668;DHT22;59504;54.806;9.640;2023-03-26T19:04:17;4.20;49.50
71668;DHT22;59504;54.806;9.640;2023-03-26T19:06:18;4.10;49.70
71668;DHT22;59504;54.806;9.640;2023-03-26T19:08:22;4.10;49.90
71668;DHT22;59504;54.806;9.640;2023-03-26T19:10:23;4.10;50.10
71668;DHT22;59504;54.806;9.640;2023-03-26T19:12:29;4.00;50.30
71668;DHT22;59504;54.806;9.640;2023-03-26T19:14:31;4.00;50.40
71668;DHT22;59504;54.806;9.640;2023-03-26T19:16:36;4.00;50.50
71668;DHT22;59504;54.806;9.640;2023-03-26T19:18:42;4.00;50.80
71668;DHT22;59504;54.806;9.640;2023-03-26T19:20:48;3.90;50.90
71668;DHT22;59504;54.806;9.640;2023-03-26T19:22:49;3.90;51.10
71668;DHT22;59504;54.806;9.640;2023-03-26T19:24:56;3.90;51.30
71668;DHT22;59504;54.806;9.640;2023-03-26T19:27:07;3.80;51.50
71668;DHT22;59504;54.806;9.640;2023-03-26T19:29:32;3.80;51.60
71668;DHT22;59504;54.806;9.640;2023-03-26T19:32:04;3.80;52.50
71668;DHT22;59504;54.806;9.640;2023-03-26T19:34:38;3.70;52.00